ESNN/SDL METAR and TAF weather

Enter ICAO airport designator
Station Type Date Time Source
ESNN METAR 2018/12/10 23:50 UTC NOAA

ESNN 102350Z AUTO 31006KT 9999 OVC013/// 02/01 Q1012


Station Type Date Time Source
ESNN Decoded METAR 2018/12/10 23:50 UTC NOAA

Sundsvall-Harnosand Flygplats, Sweden (ESNN) 62-32N 017-27E 10M
Dec 10, 2018 - 06:50 PM EST / 2018.12.10 2350 UTC
Wind: from the NW (310 degrees) at 7 MPH (6 KT):0
Visibility: greater than 7 mile(s):0
Sky conditions: overcast
Temperature: 35 F (2 C)
Windchill: 28 F (-2 C):1
Dew Point: 33 F (1 C)
Relative Humidity: 93%
Pressure (altimeter): 29.88 in. Hg (1012 hPa)
ob: ESNN 102350Z AUTO 31006KT 9999 OVC013/// 02/01 Q1012
cycle: 0

Station Type Date Time Source
ESNN TAF 2016/05/29 09:33 UTC NOAA

TAF TAF ESNN 290830Z 2909/3018 07006KT 9999 SCT045
BECMG 2913/2915 14010KT


Example: see airport list